sensor_id;sensor_type;location;lat;lon;timestamp;temperature;humidity
33827;DHT22;20128;45.582;5.298;2023-05-07T00:01:56;22.00;50.60
33827;DHT22;20128;45.582;5.298;2023-05-07T00:04:22;21.90;50.40
33827;DHT22;20128;45.582;5.298;2023-05-07T00:06:48;21.90;50.70
33827;DHT22;20128;45.582;5.298;2023-05-07T00:09:13;21.80;50.30
33827;DHT22;20128;45.582;5.298;2023-05-07T00:11:39;21.80;50.50
33827;DHT22;20128;45.582;5.298;2023-05-07T00:14:05;21.70;50.80
33827;DHT22;20128;45.582;5.298;2023-05-07T00:16:31;21.70;50.90
33827;DHT22;20128;45.582;5.298;2023-05-07T00:18:57;21.70;51.30
33827;DHT22;20128;45.582;5.298;2023-05-07T00:21:22;21.60;50.50
33827;DHT22;20128;45.582;5.298;2023-05-07T00:23:48;21.70;51.80
33827;DHT22;20128;45.582;5.298;2023-05-07T00:26:13;21.70;50.70
33827;DHT22;20128;45.582;5.298;2023-05-07T00:28:39;21.70;51.00
33827;DHT22;20128;45.582;5.298;2023-05-07T00:31:05;21.70;51.50
33827;DHT22;20128;45.582;5.298;2023-05-07T00:33:30;21.70;52.40
33827;DHT22;20128;45.582;5.298;2023-05-07T00:35:56;21.70;51.70
33827;DHT22;20128;45.582;5.298;2023-05-07T00:38:21;21.70;51.60
33827;DHT22;20128;45.582;5.298;2023-05-07T00:40:47;21.70;51.00
33827;DHT22;20128;45.582;5.298;2023-05-07T00:43:13;21.70;51.40
33827;DHT22;20128;45.582;5.298;2023-05-07T00:45:39;21.50;51.50
33827;DHT22;20128;45.582;5.298;2023-05-07T00:48:04;21.50;53.30
33827;DHT22;20128;45.582;5.298;2023-05-07T00:50:31;21.60;52.30
33827;DHT22;20128;45.582;5.298;2023-05-07T00:52:56;21.60;52.00
33827;DHT22;20128;45.582;5.298;2023-05-07T00:55:23;21.60;51.50
33827;DHT22;20128;45.582;5.298;2023-05-07T00:57:50;21.60;52.00
33827;DHT22;20128;45.582;5.298;2023-05-07T01:00:16;21.50;51.20
33827;DHT22;20128;45.582;5.298;2023-05-07T01:02:42;21.50;51.60
33827;DHT22;20128;45.582;5.298;2023-05-07T01:05:11;21.50;51.50
33827;DHT22;20128;45.582;5.298;2023-05-07T01:07:39;21.50;51.60
33827;DHT22;20128;45.582;5.298;2023-05-07T01:10:06;21.40;51.60
33827;DHT22;20128;45.582;5.298;2023-05-07T01:12:33;21.30;51.70
33827;DHT22;20128;45.582;5.298;2023-05-07T01:14:59;21.30;52.20
33827;DHT22;20128;45.582;5.298;2023-05-07T01:17:26;21.30;52.60
33827;DHT22;20128;45.582;5.298;2023-05-07T01:19:51;21.30;52.70
33827;DHT22;20128;45.582;5.298;2023-05-07T01:22:30;21.30;52.80
33827;DHT22;20128;45.582;5.298;2023-05-07T01:24:57;21.30;52.90
33827;DHT22;20128;45.582;5.298;2023-05-07T01:27:25;21.30;53.40
33827;DHT22;20128;45.582;5.298;2023-05-07T01:29:50;21.20;53.20
33827;DHT22;20128;45.582;5.298;2023-05-07T01:32:19;21.20;53.40
33827;DHT22;20128;45.582;5.298;2023-05-07T01:34:48;21.10;53.30
33827;DHT22;20128;45.582;5.298;2023-05-07T01:37:15;21.00;53.70
33827;DHT22;20128;45.582;5.298;2023-05-07T01:39:42;21.00;53.90
33827;DHT22;20128;45.582;5.298;2023-05-07T01:42:07;20.90;54.10
33827;DHT22;20128;45.582;5.298;2023-05-07T01:44:33;20.90;54.50
33827;DHT22;20128;45.582;5.298;2023-05-07T01:46:59;20.90;54.40
33827;DHT22;20128;45.582;5.298;2023-05-07T01:49:25;20.80;54.60
33827;DHT22;20128;45.582;5.298;2023-05-07T01:51:51;20.80;54.70
33827;DHT22;20128;45.582;5.298;2023-05-07T01:54:17;20.80;54.80
33827;DHT22;20128;45.582;5.298;2023-05-07T01:56:42;20.70;55.00
33827;DHT22;20128;45.582;5.298;2023-05-07T01:59:08;20.70;55.20
33827;DHT22;20128;45.582;5.298;2023-05-07T02:01:34;20.60;55.20
33827;DHT22;20128;45.582;5.298;2023-05-07T02:04:00;20.60;55.40
33827;DHT22;20128;45.582;5.298;2023-05-07T02:06:25;20.50;55.70
33827;DHT22;20128;45.582;5.298;2023-05-07T02:08:51;20.50;55.80
33827;DHT22;20128;45.582;5.298;2023-05-07T02:11:16;20.30;56.10
33827;DHT22;20128;45.582;5.298;2023-05-07T02:13:42;20.30;56.70
33827;DHT22;20128;45.582;5.298;2023-05-07T02:16:08;20.20;56.70
33827;DHT22;20128;45.582;5.298;2023-05-07T02:18:33;20.20;56.90
33827;DHT22;20128;45.582;5.298;2023-05-07T02:20:59;20.20;56.90
33827;DHT22;20128;45.582;5.298;2023-05-07T02:23:25;20.30;57.00
33827;DHT22;20128;45.582;5.298;2023-05-07T02:25:51;20.40;57.00
33827;DHT22;20128;45.582;5.298;2023-05-07T02:28:16;20.50;56.70
33827;DHT22;20128;45.582;5.298;2023-05-07T02:30:42;20.50;56.70
33827;DHT22;20128;45.582;5.298;2023-05-07T02:33:08;20.40;57.60
33827;DHT22;20128;45.582;5.298;2023-05-07T02:35:34;20.40;57.80
33827;DHT22;20128;45.582;5.298;2023-05-07T02:38:00;20.40;57.50
33827;DHT22;20128;45.582;5.298;2023-05-07T02:40:25;20.30;57.50
33827;DHT22;20128;45.582;5.298;2023-05-07T02:42:51;20.30;58.10
33827;DHT22;20128;45.582;5.298;2023-05-07T02:45:16;20.30;58.40
33827;DHT22;20128;45.582;5.298;2023-05-07T02:47:42;20.40;58.50
33827;DHT22;20128;45.582;5.298;2023-05-07T02:50:08;20.40;58.50
33827;DHT22;20128;45.582;5.298;2023-05-07T02:52:33;20.40;58.50
33827;DHT22;20128;45.582;5.298;2023-05-07T02:54:59;20.50;58.50
33827;DHT22;20128;45.582;5.298;2023-05-07T02:57:24;20.50;58.80
33827;DHT22;20128;45.582;5.298;2023-05-07T02:59:50;20.50;59.30
33827;DHT22;20128;45.582;5.298;2023-05-07T03:02:16;20.40;58.80
33827;DHT22;20128;45.582;5.298;2023-05-07T03:04:42;20.40;59.00
33827;DHT22;20128;45.582;5.298;2023-05-07T03:07:07;20.40;59.20
33827;DHT22;20128;45.582;5.298;2023-05-07T03:09:33;20.40;59.20
33827;DHT22;20128;45.582;5.298;2023-05-07T03:11:58;20.30;59.20
33827;DHT22;20128;45.582;5.298;2023-05-07T03:14:24;20.20;59.20
33827;DHT22;20128;45.582;5.298;2023-05-07T03:16:50;20.10;59.40
33827;DHT22;20128;45.582;5.298;2023-05-07T03:19:16;20.10;59.60
33827;DHT22;20128;45.582;5.298;2023-05-07T03:21:41;20.00;59.80
33827;DHT22;20128;45.582;5.298;2023-05-07T03:24:07;19.90;60.00
33827;DHT22;20128;45.582;5.298;2023-05-07T03:26:33;19.70;60.30
33827;DHT22;20128;45.582;5.298;2023-05-07T03:28:58;19.60;60.60
33827;DHT22;20128;45.582;5.298;2023-05-07T03:31:24;19.60;60.90
33827;DHT22;20128;45.582;5.298;2023-05-07T03:33:54;19.60;60.70
33827;DHT22;20128;45.582;5.298;2023-05-07T03:36:20;19.60;60.80
33827;DHT22;20128;45.582;5.298;2023-05-07T03:38:46;19.60;60.90
33827;DHT22;20128;45.582;5.298;2023-05-07T03:41:12;19.40;61.20
33827;DHT22;20128;45.582;5.298;2023-05-07T03:43:38;19.40;61.30
33827;DHT22;20128;45.582;5.298;2023-05-07T03:46:03;19.40;61.40
33827;DHT22;20128;45.582;5.298;2023-05-07T03:48:29;19.30;61.60
33827;DHT22;20128;45.582;5.298;2023-05-07T03:50:56;19.30;61.90
33827;DHT22;20128;45.582;5.298;2023-05-07T03:53:22;19.40;61.80
33827;DHT22;20128;45.582;5.298;2023-05-07T03:55:48;19.50;61.60
33827;DHT22;20128;45.582;5.298;2023-05-07T03:58:13;19.50;61.50
33827;DHT22;20128;45.582;5.298;2023-05-07T04:00:39;19.50;61.50
33827;DHT22;20128;45.582;5.298;2023-05-07T04:03:05;19.60;61.70
33827;DHT22;20128;45.582;5.298;2023-05-07T04:05:31;19.60;61.80
33827;DHT22;20128;45.582;5.298;2023-05-07T04:08:00;19.50;61.70
33827;DHT22;20128;45.582;5.298;2023-05-07T04:10:25;19.20;62.00
33827;DHT22;20128;45.582;5.298;2023-05-07T04:12:51;18.90;62.40
33827;DHT22;20128;45.582;5.298;2023-05-07T04:15:17;18.70;62.80
33827;DHT22;20128;45.582;5.298;2023-05-07T04:17:43;18.60;63.10
33827;DHT22;20128;45.582;5.298;2023-05-07T04:20:15;18.50;63.30
33827;DHT22;20128;45.582;5.298;2023-05-07T04:22:41;18.40;63.60
33827;DHT22;20128;45.582;5.298;2023-05-07T04:25:08;18.40;64.20
33827;DHT22;20128;45.582;5.298;2023-05-07T04:27:34;18.40;64.50
33827;DHT22;20128;45.582;5.298;2023-05-07T04:30:01;18.40;64.80
33827;DHT22;20128;45.582;5.298;2023-05-07T04:32:28;18.60;64.80
33827;DHT22;20128;45.582;5.298;2023-05-07T04:34:55;18.70;64.50
33827;DHT22;20128;45.582;5.298;2023-05-07T04:37:21;18.70;64.60
33827;DHT22;20128;45.582;5.298;2023-05-07T04:39:47;18.70;65.10
33827;DHT22;20128;45.582;5.298;2023-05-07T04:42:16;18.80;64.50
33827;DHT22;20128;45.582;5.298;2023-05-07T04:44:43;18.80;64.30
33827;DHT22;20128;45.582;5.298;2023-05-07T04:47:09;18.80;64.60
33827;DHT22;20128;45.582;5.298;2023-05-07T04:49:35;18.80;64.70
33827;DHT22;20128;45.582;5.298;2023-05-07T04:52:00;18.90;64.60
33827;DHT22;20128;45.582;5.298;2023-05-07T04:54:26;18.70;64.60
33827;DHT22;20128;45.582;5.298;2023-05-07T04:56:52;18.70;64.70
33827;DHT22;20128;45.582;5.298;2023-05-07T04:59:17;18.60;64.90
33827;DHT22;20128;45.582;5.298;2023-05-07T05:01:43;18.50;65.10
33827;DHT22;20128;45.582;5.298;2023-05-07T05:04:09;18.50;65.50
33827;DHT22;20128;45.582;5.298;2023-05-07T05:06:35;18.60;66.10
33827;DHT22;20128;45.582;5.298;2023-05-07T05:09:01;18.70;66.10
33827;DHT22;20128;45.582;5.298;2023-05-07T05:11:26;18.80;66.20
33827;DHT22;20128;45.582;5.298;2023-05-07T05:13:52;18.90;66.50
33827;DHT22;20128;45.582;5.298;2023-05-07T05:16:18;19.10;66.60
33827;DHT22;20128;45.582;5.298;2023-05-07T05:18:43;19.20;66.50
33827;DHT22;20128;45.582;5.298;2023-05-07T05:21:09;19.40;66.50
33827;DHT22;20128;45.582;5.298;2023-05-07T05:23:35;19.40;66.00
33827;DHT22;20128;45.582;5.298;2023-05-07T05:26:00;19.50;65.80
33827;DHT22;20128;45.582;5.298;2023-05-07T05:28:26;19.50;65.70
33827;DHT22;20128;45.582;5.298;2023-05-07T05:30:53;19.30;65.90
33827;DHT22;20128;45.582;5.298;2023-05-07T05:33:18;19.30;66.10
33827;DHT22;20128;45.582;5.298;2023-05-07T05:35:44;19.30;66.40
33827;DHT22;20128;45.582;5.298;2023-05-07T05:38:10;19.30;66.30
33827;DHT22;20128;45.582;5.298;2023-05-07T05:40:36;19.30;66.20
33827;DHT22;20128;45.582;5.298;2023-05-07T05:43:01;19.20;66.20
33827;DHT22;20128;45.582;5.298;2023-05-07T05:45:27;19.00;66.30
33827;DHT22;20128;45.582;5.298;2023-05-07T05:47:53;19.00;66.40
33827;DHT22;20128;45.582;5.298;2023-05-07T05:50:18;19.10;66.30
33827;DHT22;20128;45.582;5.298;2023-05-07T05:52:44;19.10;66.30
33827;DHT22;20128;45.582;5.298;2023-05-07T05:55:10;19.20;66.30
33827;DHT22;20128;45.582;5.298;2023-05-07T05:57:35;19.10;66.30
33827;DHT22;20128;45.582;5.298;2023-05-07T06:00:02;19.00;66.60
33827;DHT22;20128;45.582;5.298;2023-05-07T06:02:28;19.10;66.70
33827;DHT22;20128;45.582;5.298;2023-05-07T06:04:53;19.10;66.80
33827;DHT22;20128;45.582;5.298;2023-05-07T06:07:19;19.20;66.90
33827;DHT22;20128;45.582;5.298;2023-05-07T06:09:45;19.20;66.90
33827;DHT22;20128;45.582;5.298;2023-05-07T06:12:11;19.30;66.70
33827;DHT22;20128;45.582;5.298;2023-05-07T06:14:36;19.30;66.50
33827;DHT22;20128;45.582;5.298;2023-05-07T06:17:02;19.20;66.40
33827;DHT22;20128;45.582;5.298;2023-05-07T06:19:28;19.10;66.50
33827;DHT22;20128;45.582;5.298;2023-05-07T06:21:53;19.10;66.50
33827;DHT22;20128;45.582;5.298;2023-05-07T06:24:19;19.00;66.30
33827;DHT22;20128;45.582;5.298;2023-05-07T06:26:45;19.10;66.50
33827;DHT22;20128;45.582;5.298;2023-05-07T06:29:10;19.20;66.80
33827;DHT22;20128;45.582;5.298;2023-05-07T06:31:36;19.40;65.90
33827;DHT22;20128;45.582;5.298;2023-05-07T06:34:02;19.40;65.60
33827;DHT22;20128;45.582;5.298;2023-05-07T06:36:28;19.40;65.60
33827;DHT22;20128;45.582;5.298;2023-05-07T06:38:53;19.60;65.20
33827;DHT22;20128;45.582;5.298;2023-05-07T06:41:20;19.70;63.80
33827;DHT22;20128;45.582;5.298;2023-05-07T06:43:46;19.70;63.20
33827;DHT22;20128;45.582;5.298;2023-05-07T06:46:11;19.90;62.70
33827;DHT22;20128;45.582;5.298;2023-05-07T06:48:37;20.00;62.40
33827;DHT22;20128;45.582;5.298;2023-05-07T06:51:02;20.00;62.20
33827;DHT22;20128;45.582;5.298;2023-05-07T06:53:28;20.10;62.10
33827;DHT22;20128;45.582;5.298;2023-05-07T06:55:56;20.20;61.80
33827;DHT22;20128;45.582;5.298;2023-05-07T06:58:21;20.30;61.90
33827;DHT22;20128;45.582;5.298;2023-05-07T07:00:47;20.40;62.10
33827;DHT22;20128;45.582;5.298;2023-05-07T07:03:13;20.50;61.70
33827;DHT22;20128;45.582;5.298;2023-05-07T07:05:40;20.60;61.20
33827;DHT22;20128;45.582;5.298;2023-05-07T07:08:06;20.60;61.40
33827;DHT22;20128;45.582;5.298;2023-05-07T07:10:32;20.70;61.30
33827;DHT22;20128;45.582;5.298;2023-05-07T07:12:57;20.70;61.00
33827;DHT22;20128;45.582;5.298;2023-05-07T07:15:23;20.70;60.90
33827;DHT22;20128;45.582;5.298;2023-05-07T07:17:50;20.50;61.00
33827;DHT22;20128;45.582;5.298;2023-05-07T07:20:16;20.50;61.20
33827;DHT22;20128;45.582;5.298;2023-05-07T07:22:42;20.60;61.10
33827;DHT22;20128;45.582;5.298;2023-05-07T07:25:08;20.60;60.60
33827;DHT22;20128;45.582;5.298;2023-05-07T07:27:34;20.60;61.30
33827;DHT22;20128;45.582;5.298;2023-05-07T07:29:59;20.60;60.90
33827;DHT22;20128;45.582;5.298;2023-05-07T07:32:25;20.60;60.90
33827;DHT22;20128;45.582;5.298;2023-05-07T07:34:51;20.60;60.90
33827;DHT22;20128;45.582;5.298;2023-05-07T07:37:17;20.60;61.10
33827;DHT22;20128;45.582;5.298;2023-05-07T07:39:42;20.60;61.00
33827;DHT22;20128;45.582;5.298;2023-05-07T07:42:08;20.70;60.70
33827;DHT22;20128;45.582;5.298;2023-05-07T07:44:35;20.70;60.50
33827;DHT22;20128;45.582;5.298;2023-05-07T07:47:00;20.80;60.80
33827;DHT22;20128;45.582;5.298;2023-05-07T07:49:26;20.80;60.70
33827;DHT22;20128;45.582;5.298;2023-05-07T07:51:52;20.90;60.80
33827;DHT22;20128;45.582;5.298;2023-05-07T07:54:18;20.90;60.40
33827;DHT22;20128;45.582;5.298;2023-05-07T07:56:44;20.90;60.70
33827;DHT22;20128;45.582;5.298;2023-05-07T07:59:09;20.90;60.80
33827;DHT22;20128;45.582;5.298;2023-05-07T08:01:35;20.80;61.00
33827;DHT22;20128;45.582;5.298;2023-05-07T08:04:01;20.80;61.70
33827;DHT22;20128;45.582;5.298;2023-05-07T08:06:28;20.80;61.80
33827;DHT22;20128;45.582;5.298;2023-05-07T08:08:54;20.80;62.10
33827;DHT22;20128;45.582;5.298;2023-05-07T08:11:20;20.80;61.80
33827;DHT22;20128;45.582;5.298;2023-05-07T08:13:46;20.80;61.90
33827;DHT22;20128;45.582;5.298;2023-05-07T08:16:12;20.80;61.80
33827;DHT22;20128;45.582;5.298;2023-05-07T08:18:38;20.80;62.00
33827;DHT22;20128;45.582;5.298;2023-05-07T08:21:03;20.80;62.30
33827;DHT22;20128;45.582;5.298;2023-05-07T08:23:29;20.90;62.70
33827;DHT22;20128;45.582;5.298;2023-05-07T08:25:55;20.80;62.60
33827;DHT22;20128;45.582;5.298;2023-05-07T08:28:21;20.80;62.80
33827;DHT22;20128;45.582;5.298;2023-05-07T08:30:47;20.90;63.00
33827;DHT22;20128;45.582;5.298;2023-05-07T08:33:13;20.90;62.80
33827;DHT22;20128;45.582;5.298;2023-05-07T08:35:38;20.90;62.50
33827;DHT22;20128;45.582;5.298;2023-05-07T08:38:04;20.90;62.50
33827;DHT22;20128;45.582;5.298;2023-05-07T08:40:36;20.90;63.20
33827;DHT22;20128;45.582;5.298;2023-05-07T08:43:02;20.90;62.50
33827;DHT22;20128;45.582;5.298;2023-05-07T08:45:30;21.00;62.60
33827;DHT22;20128;45.582;5.298;2023-05-07T08:47:59;21.00;62.40
33827;DHT22;20128;45.582;5.298;2023-05-07T08:50:25;21.00;62.40
33827;DHT22;20128;45.582;5.298;2023-05-07T08:52:51;21.00;62.40
33827;DHT22;20128;45.582;5.298;2023-05-07T08:55:17;21.10;62.30
33827;DHT22;20128;45.582;5.298;2023-05-07T08:57:42;21.00;62.20
33827;DHT22;20128;45.582;5.298;2023-05-07T09:00:09;21.00;62.30
33827;DHT22;20128;45.582;5.298;2023-05-07T09:02:35;21.00;62.70
33827;DHT22;20128;45.582;5.298;2023-05-07T09:05:02;21.00;63.20
33827;DHT22;20128;45.582;5.298;2023-05-07T09:07:28;20.90;63.40
33827;DHT22;20128;45.582;5.298;2023-05-07T09:09:54;20.90;63.60
33827;DHT22;20128;45.582;5.298;2023-05-07T09:12:21;20.90;63.80
33827;DHT22;20128;45.582;5.298;2023-05-07T09:14:47;20.90;64.60
33827;DHT22;20128;45.582;5.298;2023-05-07T09:17:13;20.90;64.50
33827;DHT22;20128;45.582;5.298;2023-05-07T09:19:40;20.90;65.50
33827;DHT22;20128;45.582;5.298;2023-05-07T09:22:06;20.80;65.50
33827;DHT22;20128;45.582;5.298;2023-05-07T09:24:34;20.80;66.50
33827;DHT22;20128;45.582;5.298;2023-05-07T09:27:03;20.70;67.10
33827;DHT22;20128;45.582;5.298;2023-05-07T09:29:29;20.60;67.80
33827;DHT22;20128;45.582;5.298;2023-05-07T09:32:03;20.50;67.80
33827;DHT22;20128;45.582;5.298;2023-05-07T09:34:30;20.50;68.50
33827;DHT22;20128;45.582;5.298;2023-05-07T09:36:58;20.40;68.90
33827;DHT22;20128;45.582;5.298;2023-05-07T09:39:24;20.40;69.20
33827;DHT22;20128;45.582;5.298;2023-05-07T09:41:50;20.30;69.40
33827;DHT22;20128;45.582;5.298;2023-05-07T09:44:17;20.30;70.40
33827;DHT22;20128;45.582;5.298;2023-05-07T09:46:44;20.20;70.60
33827;DHT22;20128;45.582;5.298;2023-05-07T09:49:22;20.20;70.60
33827;DHT22;20128;45.582;5.298;2023-05-07T09:51:49;20.20;71.20
33827;DHT22;20128;45.582;5.298;2023-05-07T09:54:16;20.20;71.60
33827;DHT22;20128;45.582;5.298;2023-05-07T09:56:44;20.20;72.10
33827;DHT22;20128;45.582;5.298;2023-05-07T09:59:15;20.10;71.50
33827;DHT22;20128;45.582;5.298;2023-05-07T10:01:42;20.10;71.80
33827;DHT22;20128;45.582;5.298;2023-05-07T10:04:09;20.00;72.20
33827;DHT22;20128;45.582;5.298;2023-05-07T10:06:36;20.10;72.40
33827;DHT22;20128;45.582;5.298;2023-05-07T10:09:03;20.10;73.00
33827;DHT22;20128;45.582;5.298;2023-05-07T10:11:32;20.10;72.60
33827;DHT22;20128;45.582;5.298;2023-05-07T10:13:58;20.10;72.80
33827;DHT22;20128;45.582;5.298;2023-05-07T10:16:25;20.10;73.20
33827;DHT22;20128;45.582;5.298;2023-05-07T10:18:53;20.10;73.20
33827;DHT22;20128;45.582;5.298;2023-05-07T10:21:21;20.10;73.00
33827;DHT22;20128;45.582;5.298;2023-05-07T10:23:57;20.10;73.00
33827;DHT22;20128;45.582;5.298;2023-05-07T10:26:23;20.10;73.00
33827;DHT22;20128;45.582;5.298;2023-05-07T10:29:07;20.10;73.20
33827;DHT22;20128;45.582;5.298;2023-05-07T10:34:12;20.10;74.30
33827;DHT22;20128;45.582;5.298;2023-05-07T10:36:41;20.10;74.40
33827;DHT22;20128;45.582;5.298;2023-05-07T10:39:07;19.90;74.60
33827;DHT22;20128;45.582;5.298;2023-05-07T10:41:33;19.90;75.20
33827;DHT22;20128;45.582;5.298;2023-05-07T10:44:00;19.90;76.20
33827;DHT22;20128;45.582;5.298;2023-05-07T10:46:27;19.90;76.70
33827;DHT22;20128;45.582;5.298;2023-05-07T10:51:29;19.90;76.80
33827;DHT22;20128;45.582;5.298;2023-05-07T10:56:40;19.90;77.00
33827;DHT22;20128;45.582;5.298;2023-05-07T11:01:52;19.90;77.30
33827;DHT22;20128;45.582;5.298;2023-05-07T11:04:18;19.90;77.60
33827;DHT22;20128;45.582;5.298;2023-05-07T11:15:05;19.90;78.10
33827;DHT22;20128;45.582;5.298;2023-05-07T11:17:32;19.80;78.20
33827;DHT22;20128;45.582;5.298;2023-05-07T11:20:00;19.80;77.90
33827;DHT22;20128;45.582;5.298;2023-05-07T11:25:07;19.80;78.60
33827;DHT22;20128;45.582;5.298;2023-05-07T11:27:33;19.80;78.90
33827;DHT22;20128;45.582;5.298;2023-05-07T11:29:59;19.70;79.20
33827;DHT22;20128;45.582;5.298;2023-05-07T11:32:27;19.70;79.10
33827;DHT22;20128;45.582;5.298;2023-05-07T11:34:58;19.80;79.00
33827;DHT22;20128;45.582;5.298;2023-05-07T11:37:25;19.80;79.00
33827;DHT22;20128;45.582;5.298;2023-05-07T11:40:03;19.80;78.90
33827;DHT22;20128;45.582;5.298;2023-05-07T11:42:31;19.90;79.20
33827;DHT22;20128;45.582;5.298;2023-05-07T11:44:57;19.90;79.50
33827;DHT22;20128;45.582;5.298;2023-05-07T11:47:24;19.90;79.20
33827;DHT22;20128;45.582;5.298;2023-05-07T11:49:52;19.90;79.30
33827;DHT22;20128;45.582;5.298;2023-05-07T11:52:21;19.80;79.40
33827;DHT22;20128;45.582;5.298;2023-05-07T11:54:51;19.80;79.70
33827;DHT22;20128;45.582;5.298;2023-05-07T11:57:16;19.80;79.70
33827;DHT22;20128;45.582;5.298;2023-05-07T11:59:42;19.80;80.30
33827;DHT22;20128;45.582;5.298;2023-05-07T12:02:15;19.80;80.00
33827;DHT22;20128;45.582;5.298;2023-05-07T12:04:41;19.80;80.00
33827;DHT22;20128;45.582;5.298;2023-05-07T12:07:13;19.90;80.20
33827;DHT22;20128;45.582;5.298;2023-05-07T12:09:43;19.90;80.40
33827;DHT22;20128;45.582;5.298;2023-05-07T12:12:09;20.00;80.10
33827;DHT22;20128;45.582;5.298;2023-05-07T12:14:42;20.00;80.00
33827;DHT22;20128;45.582;5.298;2023-05-07T12:17:09;20.00;80.10
33827;DHT22;20128;45.582;5.298;2023-05-07T12:19:37;20.00;79.90
33827;DHT22;20128;45.582;5.298;2023-05-07T12:22:03;19.90;80.30
33827;DHT22;20128;45.582;5.298;2023-05-07T12:24:30;19.90;80.40
33827;DHT22;20128;45.582;5.298;2023-05-07T12:27:06;19.90;80.20
33827;DHT22;20128;45.582;5.298;2023-05-07T12:29:32;20.00;80.30
33827;DHT22;20128;45.582;5.298;2023-05-07T12:31:58;20.00;80.30
33827;DHT22;20128;45.582;5.298;2023-05-07T12:34:24;20.00;80.00
33827;DHT22;20128;45.582;5.298;2023-05-07T12:36:49;20.00;79.60
33827;DHT22;20128;45.582;5.298;2023-05-07T12:39:15;20.00;79.70
33827;DHT22;20128;45.582;5.298;2023-05-07T12:41:57;19.90;79.60
33827;DHT22;20128;45.582;5.298;2023-05-07T12:44:32;20.00;80.10
33827;DHT22;20128;45.582;5.298;2023-05-07T12:47:01;19.90;79.90
33827;DHT22;20128;45.582;5.298;2023-05-07T12:49:27;20.00;80.00
33827;DHT22;20128;45.582;5.298;2023-05-07T12:51:53;20.00;79.80
33827;DHT22;20128;45.582;5.298;2023-05-07T12:54:29;20.00;79.60
33827;DHT22;20128;45.582;5.298;2023-05-07T12:57:09;20.00;79.80
33827;DHT22;20128;45.582;5.298;2023-05-07T12:59:41;20.00;79.80
33827;DHT22;20128;45.582;5.298;2023-05-07T13:02:08;20.00;80.00
33827;DHT22;20128;45.582;5.298;2023-05-07T13:04:34;20.00;79.50
33827;DHT22;20128;45.582;5.298;2023-05-07T13:07:00;20.00;79.60
33827;DHT22;20128;45.582;5.298;2023-05-07T13:09:26;20.00;79.00
33827;DHT22;20128;45.582;5.298;2023-05-07T13:11:53;20.00;78.80
33827;DHT22;20128;45.582;5.298;2023-05-07T13:14:18;20.00;79.00
33827;DHT22;20128;45.582;5.298;2023-05-07T13:16:47;19.90;79.10
33827;DHT22;20128;45.582;5.298;2023-05-07T13:19:12;19.90;79.30
33827;DHT22;20128;45.582;5.298;2023-05-07T13:21:38;20.00;78.90
33827;DHT22;20128;45.582;5.298;2023-05-07T13:24:04;19.90;78.60
33827;DHT22;20128;45.582;5.298;2023-05-07T13:26:30;19.90;78.20
33827;DHT22;20128;45.582;5.298;2023-05-07T13:28:56;19.90;77.90
33827;DHT22;20128;45.582;5.298;2023-05-07T13:31:22;19.90;78.20
33827;DHT22;20128;45.582;5.298;2023-05-07T13:33:48;19.90;78.40
33827;DHT22;20128;45.582;5.298;2023-05-07T13:36:14;20.00;78.30
33827;DHT22;20128;45.582;5.298;2023-05-07T13:38:40;20.00;78.30
33827;DHT22;20128;45.582;5.298;2023-05-07T13:41:06;20.00;78.30
33827;DHT22;20128;45.582;5.298;2023-05-07T13:43:31;20.00;78.30
33827;DHT22;20128;45.582;5.298;2023-05-07T13:46:00;20.00;78.40
33827;DHT22;20128;45.582;5.298;2023-05-07T13:48:26;20.10;78.50
33827;DHT22;20128;45.582;5.298;2023-05-07T13:50:52;20.10;78.50
33827;DHT22;20128;45.582;5.298;2023-05-07T13:53:18;20.00;78.60
33827;DHT22;20128;45.582;5.298;2023-05-07T13:55:44;20.00;78.70
33827;DHT22;20128;45.582;5.298;2023-05-07T13:58:10;20.00;78.90
33827;DHT22;20128;45.582;5.298;2023-05-07T14:00:36;20.00;79.30
33827;DHT22;20128;45.582;5.298;2023-05-07T14:03:02;20.00;79.30
33827;DHT22;20128;45.582;5.298;2023-05-07T14:05:27;20.00;79.40
33827;DHT22;20128;45.582;5.298;2023-05-07T14:07:54;19.90;79.60
33827;DHT22;20128;45.582;5.298;2023-05-07T14:10:20;19.90;80.10
33827;DHT22;20128;45.582;5.298;2023-05-07T14:12:46;19.90;80.40
33827;DHT22;20128;45.582;5.298;2023-05-07T14:15:12;20.00;80.40
33827;DHT22;20128;45.582;5.298;2023-05-07T14:17:38;20.00;80.70
33827;DHT22;20128;45.582;5.298;2023-05-07T14:20:04;20.00;80.70
33827;DHT22;20128;45.582;5.298;2023-05-07T14:22:32;20.00;81.20
33827;DHT22;20128;45.582;5.298;2023-05-07T14:24:57;20.10;81.10
33827;DHT22;20128;45.582;5.298;2023-05-07T14:27:23;20.10;81.00
33827;DHT22;20128;45.582;5.298;2023-05-07T14:29:49;20.20;81.00
33827;DHT22;20128;45.582;5.298;2023-05-07T14:32:17;20.20;81.10
33827;DHT22;20128;45.582;5.298;2023-05-07T14:34:43;20.30;81.00
33827;DHT22;20128;45.582;5.298;2023-05-07T14:37:09;20.30;81.00
33827;DHT22;20128;45.582;5.298;2023-05-07T14:39:35;20.30;81.20
33827;DHT22;20128;45.582;5.298;2023-05-07T14:42:00;20.30;80.90
33827;DHT22;20128;45.582;5.298;2023-05-07T14:44:26;20.30;80.60
33827;DHT22;20128;45.582;5.298;2023-05-07T14:46:52;20.30;79.80
33827;DHT22;20128;45.582;5.298;2023-05-07T14:49:17;20.30;79.80
33827;DHT22;20128;45.582;5.298;2023-05-07T14:51:44;20.20;80.30
33827;DHT22;20128;45.582;5.298;2023-05-07T14:54:10;20.20;80.60
33827;DHT22;20128;45.582;5.298;2023-05-07T14:56:36;20.20;80.30
33827;DHT22;20128;45.582;5.298;2023-05-07T14:59:02;20.10;78.30
33827;DHT22;20128;45.582;5.298;2023-05-07T15:01:28;20.00;78.70
33827;DHT22;20128;45.582;5.298;2023-05-07T15:03:54;20.00;79.40
33827;DHT22;20128;45.582;5.298;2023-05-07T15:06:21;20.00;80.50
33827;DHT22;20128;45.582;5.298;2023-05-07T15:08:47;19.90;79.80
33827;DHT22;20128;45.582;5.298;2023-05-07T15:11:14;19.90;79.90
33827;DHT22;20128;45.582;5.298;2023-05-07T15:13:41;19.90;80.00
33827;DHT22;20128;45.582;5.298;2023-05-07T15:16:06;19.90;79.80
33827;DHT22;20128;45.582;5.298;2023-05-07T15:18:32;19.90;79.50
33827;DHT22;20128;45.582;5.298;2023-05-07T15:20:58;19.90;79.40
33827;DHT22;20128;45.582;5.298;2023-05-07T15:23:23;19.90;79.50
33827;DHT22;20128;45.582;5.298;2023-05-07T15:25:49;19.90;79.30
33827;DHT22;20128;45.582;5.298;2023-05-07T15:28:15;19.80;79.30
33827;DHT22;20128;45.582;5.298;2023-05-07T15:30:41;19.80;79.60
33827;DHT22;20128;45.582;5.298;2023-05-07T15:33:06;19.90;80.20
33827;DHT22;20128;45.582;5.298;2023-05-07T15:35:32;19.90;80.20
33827;DHT22;20128;45.582;5.298;2023-05-07T15:37:58;20.00;80.70
33827;DHT22;20128;45.582;5.298;2023-05-07T15:40:24;20.00;80.90
33827;DHT22;20128;45.582;5.298;2023-05-07T15:42:50;20.00;80.60
33827;DHT22;20128;45.582;5.298;2023-05-07T15:45:19;20.00;79.80
33827;DHT22;20128;45.582;5.298;2023-05-07T15:47:45;20.00;79.80